Aérodrome :
LOGIN :

S'inscrire | Disclaimer

   EN    FR    IT 

 










Légende :    VFR   VFR Marginal   IFR   IFR Intensif   IFR Très Intensif
Visi : 
Plafond : 
>= 8 km
>= 3000ft
5 à 8 km
1000 à 3000 ft
1500m à 5 km
500 à 1000 ft
800 à 1500m
200 à 500 ft
< 800m
< 200 ft
Symboles :   Orages  Brouillard  Fortes neiges  Fortes précipitations  Vent > 20 kt
SIGMETs :   Divers  Orages  Givrage  Turbulence  Onde Orograph.  Cendres Volcan.







- Altitude de l'aérodrome : 13 ft
- Code IATA : OST


EBOS - Oostend bruges Int.

DERNIER METAR :
  • 220550Z 24022KT 9999 FEW014 BKN020 10/08 Q1009 TEMPO 24025G35KT BKN014

METARs EXPIRÉS :
  • 220520Z 24021KT 9999 FEW014 BKN020 10/07 Q1009 TEMPO 24025G35KT BKN012
  • 220450Z 24022G33KT 9999 FEW015 BKN020 10/08 Q1009 TEMPO BKN012
  • 220420Z 24021KT 9999 BKN020 10/07 Q1009 TEMPO 24022G35KT BKN008
  • 220350Z 24022G32KT 9999 BKN014 BKN020 10/08 Q1010 TEMPO BKN008
  • 220320Z 24021KT 9999 BKN011 BKN022 10/08 Q1010 TEMPO 24022G35KT BKN008

TAF TAF EBOS
Valide du 22 à 06h jusqu'au 23 à 12h UTC


220510Z 2206/2312 25020G30KT 9999 SCT009 BKN016
PROB30
TEMPO 2206/2310 25025G40KT 3000 DZ DZRA BKN009
TEMPO 2310/2312 23025G42KT
Pas de NOTAMs connus pour ce terrain.
1 SIGMET publié pour la FIR Brussels (EBBU) :
 
Turbulence forte
EBBU SIGMET 01 VALID 220400/220700 EBBR
EBBU BRUSSELS FIR SEV TURB FCST W OF LINE N5115 E00400 - N5045 E00330 SFC/FL050 MOV E15KT WKN=



MET'MAP, la Météo Aéronautique d'un coup d'oeil ! - Copyright ORBIFLY Décembre 2007 - Disclaimer

ORBIFLY MET'MAP TEAM :

Programmation & Développement : Alexandra Zaïnal
Conception & Développement : Baudouin d'Aumeries
Co-Programmation & Développement : Marc-Olivier Méhu
Soutien technique & logistique : Manuel Goepfert

Contact : metmap@orbifly.com




SOURCES & CREDITS :

   NOAA